Time;durP1;ratioP1;P1;durP2;ratioP2;P2;SDS_P1;SDS_P2;PMS_P1;PMS_P2;Temp;Humidity;BMP_temperature;BMP_pressure;BME280_temperature;BME280_humidity;BME280_pressure;Samples;Min_cycle;Max_cycle;Signal;HPM_P1;HPM_P2
2022/09/06 00:01:38;;;;;;;;;4.25;4.25;;;;;22.68;59.97;100690.91;4977414;28;45444;-61
2022/09/06 00:04:04;;;;;;;;;6.00;5.25;;;;;22.68;60.12;100694.44;4977533;28;45465;-61
2022/09/06 00:06:29;;;;;;;;;8.00;6.00;;;;;22.67;60.39;100700.75;4977058;28;45379;-62
2022/09/06 00:08:54;;;;;;;;;0.00;0.00;;;;;22.64;60.07;100686.78;4977437;28;45373;-61
2022/09/06 00:11:19;;;;;;;;;7.00;7.00;;;;;22.66;60.40;100691.03;4977726;28;45436;-61
2022/09/06 00:13:46;;;;;;;;;6.75;5.50;;;;;22.65;60.95;100701.91;4977404;28;45488;-61
2022/09/06 00:16:15;;;;;;;;;7.50;6.50;;;;;22.63;60.75;100693.97;4977210;28;46063;-61
2022/09/06 00:18:41;;;;;;;;;7.25;7.25;;;;;22.60;61.12;100696.06;4976976;28;45431;-61
2022/09/06 00:21:16;;;;;;;;;10.00;9.00;;;;;22.54;60.89;100700.13;4977341;28;45444;-62
2022/09/06 00:23:42;;;;;;;;;5.25;5.25;;;;;22.54;61.03;100702.81;4977203;28;45599;-62
2022/09/06 00:26:07;;;;;;;;;5.00;5.00;;;;;22.49;61.04;100696.97;4976874;28;45984;-61
2022/09/06 00:28:32;;;;;;;;;6.75;6.75;;;;;22.46;60.78;100699.88;4977074;28;45440;-61
2022/09/06 00:30:57;;;;;;;;;7.50;7.50;;;;;22.43;61.07;100706.38;4977155;28;45504;-61
2022/09/06 00:33:23;;;;;;;;;7.25;7.25;;;;;22.40;61.04;100709.28;4976993;28;45357;-61
2022/09/06 00:35:49;;;;;;;;;9.75;7.00;;;;;22.41;61.49;100702.13;4976782;28;45465;-61
2022/09/06 00:38:14;;;;;;;;;7.50;7.25;;;;;22.44;61.22;100705.38;4976766;28;45401;-61
2022/09/06 00:40:40;;;;;;;;;7.75;7.75;;;;;22.41;60.97;100696.75;4976790;28;45346;-61
2022/09/06 00:43:06;;;;;;;;;6.50;6.50;;;;;22.45;61.18;100696.34;4976778;28;45620;-61
2022/09/06 00:45:32;;;;;;;;;7.00;7.00;;;;;22.39;61.29;100699.56;4976593;28;46157;-62
2022/09/06 00:48:00;;;;;;;;;8.00;6.00;;;;;22.34;60.66;100700.91;4976675;28;45464;-61
2022/09/06 00:50:27;;;;;;;;;6.00;6.00;;;;;22.40;60.99;100703.09;4976307;28;45452;-62
2022/09/06 00:52:53;;;;;;;;;5.00;5.00;;;;;22.42;60.45;100709.19;4976714;28;45394;-61
2022/09/06 00:55:19;;;;;;;;;7.00;6.00;;;;;22.43;60.07;100705.50;4976504;28;46118;-61
2022/09/06 00:57:49;;;;;;;;;6.25;6.25;;;;;22.43;60.07;100711.75;4976478;28;45469;-62
2022/09/06 01:00:16;;;;;;;;;4.75;4.00;;;;;22.45;60.52;100714.28;4976744;28;45527;-61
2022/09/06 01:02:41;;;;;;;;;7.25;7.25;;;;;22.44;59.84;100704.53;4976603;28;45488;-61
2022/09/06 01:05:08;;;;;;;;;5.00;5.00;;;;;22.47;60.22;100705.13;4976313;28;46054;-61
2022/09/06 01:07:45;;;;;;;;;7.00;5.50;;;;;22.49;59.90;100711.22;4976338;28;45480;-61
2022/09/06 01:10:27;;;;;;;;;4.75;4.75;;;;;22.47;60.24;100697.09;4976516;28;45452;-61
2022/09/06 01:13:14;;;;;;;;;8.00;8.00;;;;;22.52;59.75;100698.53;4977077;28;45409;-61
2022/09/06 01:16:36;;;;;;;;;6.75;6.00;;;;;22.49;59.71;100696.97;4976340;28;46322;-61
2022/09/06 01:19:23;;;;;;;;;6.00;6.00;;;;;22.52;59.54;100701.22;4896832;29;45422;-61
2022/09/06 01:22:05;;;;;;;;;5.25;5.25;;;;;22.50;59.59;100701.34;4897104;29;45461;-61
2022/09/06 01:24:58;;;;;;;;;6.25;5.50;;;;;22.55;59.09;100699.13;4963892;28;45431;-61
2022/09/06 01:27:45;;;;;;;;;6.00;6.00;;;;;22.54;59.41;100702.81;4975904;28;46315;-61
2022/09/06 01:30:13;;;;;;;;;6.00;6.00;;;;;22.58;59.18;100704.22;4976210;28;45393;-61
2022/09/06 01:33:00;;;;;;;;;7.00;7.00;;;;;22.59;58.92;100700.56;4976189;28;45473;-61
2022/09/06 01:36:01;;;;;;;;;6.00;6.00;;;;;22.58;59.56;100698.88;4976071;28;45366;-61
2022/09/06 01:38:27;;;;;;;;;5.75;5.75;;;;;22.61;59.08;100698.59;4975153;28;46071;-61
2022/09/06 01:40:53;;;;;;;;;7.75;7.50;;;;;22.58;59.64;100698.03;4976058;28;45401;-60
2022/09/06 01:43:26;;;;;;;;;5.25;5.25;;;;;22.59;59.36;100703.22;4976020;28;45409;-61
2022/09/06 01:46:13;;;;;;;;;5.25;5.25;;;;;22.59;59.82;100699.72;4975948;28;45448;-61
2022/09/06 01:48:54;;;;;;;;;7.50;7.50;;;;;22.50;60.78;100702.19;4976040;28;45428;-62
2022/09/06 01:51:33;;;;;;;;;7.50;6.25;;;;;22.44;61.09;100699.19;4975918;28;45468;-60
2022/09/06 01:54:14;;;;;;;;;8.50;7.50;;;;;22.43;60.78;100700.16;4975890;28;45395;-62
2022/09/06 01:57:13;;;;;;;;;6.00;6.00;;;;;22.41;60.73;100699.44;4975911;28;45452;-63
2022/09/06 02:00:08;;;;;;;;;11.25;9.00;;;;;22.46;60.57;100697.19;4975573;28;47021;-62
2022/09/06 02:02:51;;;;;;;;;5.75;4.50;;;;;22.43;60.89;100694.78;4958923;28;45497;-62
2022/09/06 02:05:42;;;;;;;;;8.25;8.25;;;;;22.39;60.76;100693.34;4979206;28;45510;-62
2022/09/06 02:08:11;;;;;;;;;7.00;7.00;;;;;22.31;60.66;100688.63;4979345;28;45453;-62
2022/09/06 02:10:44;;;;;;;;;8.00;6.75;;;;;22.24;60.74;100680.25;4978628;28;46301;-62
2022/09/06 02:13:12;;;;;;;;;9.00;9.00;;;;;22.18;61.06;100675.41;4979605;28;45482;-62
2022/09/06 02:15:45;;;;;;;;;6.00;6.00;;;;;22.16;60.92;100679.16;4979110;28;45463;-62
2022/09/06 02:18:27;;;;;;;;;9.50;7.25;;;;;22.14;60.82;100675.72;4979061;28;45454;-62
2022/09/06 02:20:56;;;;;;;;;7.25;6.50;;;;;22.16;60.87;100679.16;4978765;28;46145;-62
2022/09/06 02:23:25;;;;;;;;;8.00;7.25;;;;;22.16;60.91;100685.34;4978791;28;45401;-62
2022/09/06 02:25:55;;;;;;;;;6.00;6.00;;;;;22.19;60.56;100689.63;4978897;28;45437;-62
2022/09/06 02:28:21;;;;;;;;;8.00;6.00;;;;;22.19;60.95;100693.19;4978868;28;45408;-62
2022/09/06 02:30:56;;;;;;;;;6.75;6.75;;;;;22.23;60.58;100697.31;4978758;28;46229;-62
2022/09/06 02:33:27;;;;;;;;;8.00;7.00;;;;;22.22;60.42;100700.13;4978569;28;45372;-63
2022/09/06 02:35:54;;;;;;;;;6.50;6.50;;;;;22.21;60.49;100691.22;4978907;28;45488;-62
2022/09/06 02:38:22;;;;;;;;;8.00;8.00;;;;;22.23;60.43;100685.75;4978716;28;45677;-62
2022/09/06 02:40:50;;;;;;;;;6.00;6.00;;;;;22.20;60.63;100677.97;4978536;28;45475;-62
2022/09/06 02:43:16;;;;;;;;;6.00;6.00;;;;;22.13;60.94;100666.84;4978486;28;45385;-62
2022/09/06 02:45:41;;;;;;;;;7.00;7.00;;;;;22.19;60.49;100670.88;4978487;28;45862;-62
2022/09/06 02:48:06;;;;;;;;;7.00;7.00;;;;;22.19;60.67;100676.25;4978716;28;45567;-62
2022/09/06 02:50:32;;;;;;;;;6.00;6.00;;;;;22.13;60.31;100676.72;4978315;28;45496;-62
2022/09/06 02:53:01;;;;;;;;;7.25;6.00;;;;;22.09;60.56;100678.81;4978424;28;45785;-62
2022/09/06 02:55:27;;;;;;;;;7.00;7.00;;;;;22.05;60.72;100678.19;4978587;28;45439;-62
2022/09/06 02:57:52;;;;;;;;;6.50;6.50;;;;;22.03;60.98;100671.25;4978292;28;45448;-63
2022/09/06 03:00:17;;;;;;;;;6.75;6.25;;;;;22.02;60.88;100669.56;4977950;28;57913;-62
2022/09/06 03:02:43;;;;;;;;;8.00;7.25;;;;;22.00;60.91;100676.88;4978185;28;45342;-62
2022/09/06 03:05:08;;;;;;;;;7.75;7.50;;;;;22.00;60.78;100690.28;4960630;28;45358;-62
2022/09/06 03:07:33;;;;;;;;;7.50;6.50;;;;;22.03;60.79;100690.88;4978305;28;45373;-62
2022/09/06 03:09:59;;;;;;;;;5.75;5.00;;;;;22.06;60.64;100692.47;4977911;28;46579;-62
2022/09/06 03:12:24;;;;;;;;;5.00;5.00;;;;;21.98;60.84;100678.84;4978665;28;45394;-62
2022/09/06 03:14:49;;;;;;;;;6.00;5.50;;;;;22.00;60.82;100679.56;4977764;28;45372;-62
2022/09/06 03:17:15;;;;;;;;;7.75;6.75;;;;;21.99;60.79;100684.06;4978457;28;45313;-62
2022/09/06 03:19:40;;;;;;;;;8.00;7.00;;;;;21.97;60.99;100699.41;4960301;28;47241;-62
2022/09/06 03:22:05;;;;;;;;;8.00;8.00;;;;;21.96;61.13;100699.53;4977872;28;49759;-62
2022/09/06 03:24:31;;;;;;;;;9.00;8.00;;;;;21.95;61.25;100688.00;4978051;28;45476;-62
2022/09/06 03:26:56;;;;;;;;;6.25;6.25;;;;;21.93;61.16;100683.72;4978161;28;45585;-62
2022/09/06 03:29:21;;;;;;;;;6.50;6.50;;;;;21.88;61.21;100675.22;4977761;28;45454;-62
2022/09/06 03:31:46;;;;;;;;;9.00;9.00;;;;;21.90;61.01;100692.88;4977975;28;45552;-62
2022/09/06 03:34:12;;;;;;;;;7.25;7.25;;;;;21.92;61.13;100698.09;4978008;28;45486;-62
2022/09/06 03:36:37;;;;;;;;;5.75;5.75;;;;;21.92;61.26;100700.75;4977922;28;45606;-63
2022/09/06 03:39:02;;;;;;;;;7.25;7.25;;;;;21.94;61.21;100709.53;4977722;28;45508;-62
2022/09/06 03:41:28;;;;;;;;;9.75;8.50;;;;;21.96;61.08;100713.78;4977920;28;45488;-62
2022/09/06 03:43:53;;;;;;;;;7.25;7.25;;;;;21.94;61.07;100709.53;4977581;28;45587;-62
2022/09/06 03:46:18;;;;;;;;;6.25;6.25;;;;;21.94;61.18;100717.56;4977779;28;45448;-62
2022/09/06 03:48:44;;;;;;;;;7.50;7.50;;;;;21.95;61.01;100724.59;4976873;28;49780;-63
2022/09/06 03:51:09;;;;;;;;;9.00;9.00;;;;;21.92;61.21;100727.53;4977503;28;45512;-62
2022/09/06 03:53:34;;;;;;;;;7.25;7.25;;;;;21.82;61.37;100732.81;4977623;28;45478;-62
2022/09/06 03:56:00;;;;;;;;;8.50;8.50;;;;;21.66;61.59;100724.31;4977649;28;45475;-62
2022/09/06 03:58:29;;;;;;;;;7.50;7.50;;;;;21.64;61.48;100739.63;4977424;28;45515;-62
2022/09/06 04:01:03;;;;;;;;;7.25;6.75;;;;;21.63;61.83;100746.81;4977663;28;45529;-62
2022/09/06 04:03:29;;;;;;;;;7.00;7.00;;;;;21.62;62.04;100742.41;4977593;28;45409;-62
2022/09/06 04:05:54;;;;;;;;;7.75;7.75;;;;;21.56;61.98;100746.44;4977496;28;45547;-62
2022/09/06 04:08:20;;;;;;;;;8.00;8.00;;;;;21.61;61.95;100757.63;4977267;28;45996;-62
2022/09/06 04:10:48;;;;;;;;;9.25;9.25;;;;;21.68;61.38;100763.38;4977175;28;45434;-64
2022/09/06 04:13:14;;;;;;;;;8.50;7.75;;;;;21.65;62.15;100768.09;4977922;28;45440;-62
2022/09/06 04:15:39;;;;;;;;;7.50;7.50;;;;;21.57;62.13;100771.38;4977479;28;45365;-62
2022/09/06 04:18:04;;;;;;;;;8.67;8.67;;;;;21.46;62.45;100764.19;4977143;28;46042;-62
2022/09/06 04:20:30;;;;;;;;;7.33;7.33;;;;;21.40;62.55;100762.00;4977353;28;45481;-62
2022/09/06 04:22:55;;;;;;;;;9.00;7.50;;;;;21.40;62.33;100765.50;4977440;28;45472;-62
2022/09/06 04:25:20;;;;;;;;;6.00;6.00;;;;;21.24;62.55;100748.91;4976294;28;45483;-62
2022/09/06 04:27:45;;;;;;;;;10.00;10.00;;;;;21.27;62.79;100767.41;4976784;28;46353;-61
2022/09/06 04:30:11;;;;;;;;;10.00;9.00;;;;;21.31;62.59;100763.53;4959193;28;48437;-61
2022/09/06 04:32:36;;;;;;;;;8.00;7.67;;;;;21.33;62.42;100772.31;4976921;28;45421;-62
2022/09/06 04:35:02;;;;;;;;;8.00;7.50;;;;;21.36;62.23;100769.38;4977025;28;45484;-61
2022/09/06 04:37:27;;;;;;;;;7.00;7.00;;;;;21.31;62.17;100763.53;4976695;28;45943;-61
2022/09/06 04:39:53;;;;;;;;;6.33;6.33;;;;;21.37;61.90;100781.81;4976710;28;45409;-61
2022/09/06 04:42:18;;;;;;;;;6.00;6.00;;;;;21.35;61.71;100778.38;4976870;28;45433;-62
2022/09/06 04:44:43;;;;;;;;;7.00;7.00;;;;;21.29;61.82;100768.16;4976629;28;45494;-61
2022/09/06 04:47:14;;;;;;;;;6.00;6.00;;;;;21.39;61.72;100781.72;4976217;28;52732;-61
2022/09/06 04:49:41;;;;;;;;;7.50;7.50;;;;;21.35;61.89;100789.06;4976393;28;45461;-61
2022/09/06 04:52:06;;;;;;;;;5.33;5.33;;;;;21.35;61.65;100786.38;4976749;28;45440;-61
2022/09/06 04:54:32;;;;;;;;;6.00;6.00;;;;;21.43;61.54;100788.50;4976576;28;45501;-61
2022/09/06 04:56:57;;;;;;;;;8.00;7.00;;;;;21.45;61.36;100797.28;4976447;28;45490;-61
2022/09/06 04:59:22;;;;;;;;;9.00;8.00;;;;;21.46;61.21;100792.78;4976289;28;45492;-61
2022/09/06 05:01:48;;;;;;;;;10.00;9.00;;;;;21.47;61.12;100791.81;4976286;28;45543;-61
2022/09/06 05:04:13;;;;;;;;;8.00;8.00;;;;;21.40;61.69;100794.94;4976324;28;45656;-62
2022/09/06 05:06:40;;;;;;;;;9.25;9.25;;;;;21.36;61.72;100789.94;4976191;28;45286;-62
2022/09/06 05:09:06;;;;;;;;;8.67;8.00;;;;;21.29;62.16;100789.56;4976372;28;45475;-61
2022/09/06 05:11:31;;;;;;;;;9.00;9.00;;;;;21.31;61.80;100790.28;4976140;28;45508;-62
2022/09/06 05:13:56;;;;;;;;;8.67;8.67;;;;;21.34;61.91;100791.88;4977164;28;45414;-61
2022/09/06 05:16:22;;;;;;;;;10.33;10.33;;;;;21.28;61.86;100782.50;4976210;28;45452;-62
2022/09/06 05:18:47;;;;;;;;;10.25;10.25;;;;;21.25;61.84;100787.22;4976504;28;45379;-61
2022/09/06 05:21:13;;;;;;;;;9.33;8.33;;;;;21.20;61.90;100784.94;4976127;28;45506;-61
2022/09/06 05:23:38;;;;;;;;;10.75;10.00;;;;;21.28;61.97;100793.22;4976523;28;46185;-62
2022/09/06 05:26:03;;;;;;;;;8.00;8.00;;;;;21.30;61.26;100788.56;4975542;28;45457;-62
2022/09/06 05:28:29;;;;;;;;;8.00;8.00;;;;;21.32;61.69;100799.16;4976041;28;45437;-61
2022/09/06 05:31:09;;;;;;;;;12.00;10.00;;;;;21.30;61.63;100793.91;4976186;28;45511;-60
2022/09/06 05:33:35;;;;;;;;;9.00;9.00;;;;;21.30;61.80;100785.88;4976226;28;45390;-62
2022/09/06 05:36:03;;;;;;;;;9.00;9.00;;;;;21.39;61.66;100797.75;4975986;28;46170;-62
2022/09/06 05:38:28;;;;;;;;;8.50;8.50;;;;;21.36;61.26;100795.28;4975835;28;45494;-62
2022/09/06 05:40:53;;;;;;;;;8.75;8.75;;;;;21.44;60.93;100784.00;4976108;28;45531;-62
2022/09/06 05:43:19;;;;;;;;;9.00;7.25;;;;;21.51;60.68;100785.22;4975769;28;45599;-62
2022/09/06 05:45:44;;;;;;;;;11.50;11.25;;;;;21.50;60.42;100781.72;4975674;28;45676;-62
2022/09/06 05:48:10;;;;;;;;;8.00;8.00;;;;;21.58;60.43;100783.78;4976128;28;45533;-62
2022/09/06 05:50:35;;;;;;;;;8.00;8.00;;;;;21.60;60.33;100788.06;4975710;28;45931;-63
2022/09/06 05:53:01;;;;;;;;;10.00;9.75;;;;;21.59;60.43;100785.47;4976165;28;45609;-63
2022/09/06 05:55:26;;;;;;;;;7.00;6.75;;;;;21.60;60.25;100784.50;4975545;28;45537;-64
2022/09/06 05:57:51;;;;;;;;;10.00;8.75;;;;;21.63;60.15;100776.25;4975716;28;45461;-61
2022/09/06 06:00:17;;;;;;;;;7.33;7.33;;;;;21.63;60.01;100781.59;4975679;28;45442;-62
2022/09/06 06:02:45;;;;;;;;;7.75;7.75;;;;;21.65;59.89;100781.47;4975802;28;45386;-61
2022/09/06 06:05:10;;;;;;;;;7.67;6.67;;;;;21.62;60.10;100775.38;4975539;28;46066;-61
2022/09/06 06:07:36;;;;;;;;;9.33;9.33;;;;;21.65;60.52;100781.47;4975650;28;45377;-62
2022/09/06 06:10:01;;;;;;;;;9.00;9.00;;;;;21.69;60.57;100780.28;4975556;28;45260;-61
2022/09/06 06:12:26;;;;;;;;;12.33;10.67;;;;;21.69;60.76;100778.44;4976293;28;45535;-62
2022/09/06 06:14:52;;;;;;;;;11.00;11.00;;;;;21.71;60.33;100781.84;4975330;28;46248;-62
2022/09/06 06:17:17;;;;;;;;;11.00;11.00;;;;;21.75;60.37;100772.59;4975263;28;49166;-63
2022/09/06 06:19:42;;;;;;;;;10.33;10.33;;;;;21.77;60.13;100773.31;4975569;28;45314;-62
2022/09/06 06:22:08;;;;;;;;;10.00;10.00;;;;;21.80;60.26;100759.69;4975424;28;45474;-61
2022/09/06 06:24:33;;;;;;;;;9.33;9.33;;;;;21.84;60.16;100755.81;4957677;28;47213;-61
2022/09/06 06:26:58;;;;;;;;;10.33;10.00;;;;;21.83;59.92;100743.38;4975167;28;52512;-62
2022/09/06 06:29:24;;;;;;;;;10.67;8.00;;;;;21.94;59.67;100760.41;4975485;28;45372;-62
2022/09/06 06:31:49;;;;;;;;;10.75;10.75;;;;;21.90;59.32;100748.25;4975388;28;45483;-63
2022/09/06 06:34:15;;;;;;;;;9.33;8.67;;;;;22.01;59.24;100765.16;4974939;28;48680;-62
2022/09/06 06:36:40;;;;;;;;;7.00;7.00;;;;;22.06;58.95;100768.31;4957633;28;45410;-62
2022/09/06 06:39:07;;;;;;;;;7.50;7.50;;;;;22.10;58.91;100768.91;4974898;28;45808;-62
2022/09/06 06:41:33;;;;;;;;;9.00;8.00;;;;;22.12;58.92;100777.69;4975213;28;45597;-62
2022/09/06 06:44:00;;;;;;;;;9.00;9.00;;;;;22.15;58.44;100772.06;4974782;28;46368;-62
2022/09/06 06:46:28;;;;;;;;;9.75;9.75;;;;;22.17;58.86;100769.28;4973732;28;45593;-62
2022/09/06 06:48:54;;;;;;;;;10.33;10.33;;;;;22.14;58.49;100770.38;4976113;28;45430;-62
2022/09/06 06:51:21;;;;;;;;;8.50;8.50;;;;;22.13;58.34;100771.31;4978265;28;45488;-62
2022/09/06 06:53:47;;;;;;;;;8.50;8.50;;;;;22.18;58.57;100768.28;4978266;28;45455;-62
2022/09/06 06:56:13;;;;;;;;;13.00;11.33;;;;;22.17;58.32;100763.91;4978306;28;45453;-62
2022/09/06 06:58:38;;;;;;;;;10.00;10.00;;;;;22.13;58.81;100762.44;4978425;28;45448;-62
2022/09/06 07:01:03;;;;;;;;;10.00;10.00;;;;;22.08;58.94;100757.44;4978275;28;45353;-62
2022/09/06 07:03:29;;;;;;;;;9.75;9.25;;;;;22.13;58.96;100767.81;4977948;28;46404;-62
2022/09/06 07:05:54;;;;;;;;;12.00;12.00;;;;;22.14;59.24;100765.00;4977763;28;55764;-62
2022/09/06 07:08:20;;;;;;;;;11.25;11.00;;;;;22.14;59.14;100758.78;4978144;28;45427;-62
2022/09/06 07:10:45;;;;;;;;;15.00;15.00;;;;;22.09;59.24;100756.50;4978072;28;45487;-62
2022/09/06 07:13:11;;;;;;;;;13.67;12.33;;;;;22.02;59.17;100737.38;4978718;28;45455;-62
2022/09/06 07:15:36;;;;;;;;;12.00;12.00;;;;;22.02;59.33;100748.09;4978291;28;45321;-62
2022/09/06 07:18:01;;;;;;;;;12.00;10.33;;;;;21.94;59.02;100720.25;4978174;28;45836;-63
2022/09/06 07:20:27;;;;;;;;;9.25;9.25;;;;;22.15;58.94;100758.66;4978227;28;45455;-62
2022/09/06 07:23:04;;;;;;;;;23.00;23.00;;;;;22.11;59.30;100746.53;4978084;28;46401;-62
2022/09/06 07:25:30;;;;;;;;;14.67;13.33;;;;;22.17;59.06;100754.03;4977849;28;45456;-62
2022/09/06 07:28:14;;;;;;;;;10.75;10.25;;;;;22.21;59.30;100760.88;4978034;28;45545;-62
2022/09/06 07:30:39;;;;;;;;;12.00;10.33;;;;;22.25;58.98;100754.31;4978084;28;45530;-62
2022/09/06 07:33:05;;;;;;;;;14.67;13.67;;;;;22.28;59.07;100746.00;4977612;28;45470;-62
2022/09/06 07:35:31;;;;;;;;;9.67;9.67;;;;;22.31;59.10;100741.38;4977817;28;45487;-62
2022/09/06 07:37:58;;;;;;;;;16.67;16.33;;;;;22.39;59.12;100747.78;4977859;28;45416;-62
2022/09/06 07:40:25;;;;;;;;;20.33;20.33;;;;;22.37;58.90;100747.06;4977947;28;45441;-62
2022/09/06 07:42:51;;;;;;;;;14.33;11.67;;;;;22.45;58.98;100751.78;4977577;28;46068;-62
2022/09/06 07:45:18;;;;;;;;;9.50;9.50;;;;;22.47;59.30;100760.56;4977533;28;45463;-62
2022/09/06 07:47:43;;;;;;;;;11.00;10.00;;;;;22.53;58.87;100770.78;4977677;28;45432;-62
2022/09/06 07:50:08;;;;;;;;;8.25;8.25;;;;;22.50;58.57;100787.97;4977741;28;45457;-63
2022/09/06 07:52:34;;;;;;;;;10.00;9.00;;;;;22.56;58.13;100781.22;4977484;28;45473;-62
2022/09/06 07:54:59;;;;;;;;;9.75;9.75;;;;;22.56;58.08;100780.41;4977505;28;45468;-62
2022/09/06 07:57:24;;;;;;;;;9.25;8.25;;;;;22.60;58.37;100781.84;4977566;28;45425;-62
2022/09/06 07:59:50;;;;;;;;;12.00;12.00;;;;;22.66;58.32;100784.88;4976427;28;45626;-62
2022/09/06 08:02:16;;;;;;;;;8.00;8.00;;;;;22.71;58.19;100784.50;4976673;28;45498;-62
2022/09/06 08:04:42;;;;;;;;;11.25;11.25;;;;;22.78;58.03;100787.50;4977148;28;45465;-62
2022/09/06 08:07:08;;;;;;;;;9.25;8.75;;;;;22.76;57.90;100782.28;4977214;28;45525;-62
2022/09/06 08:09:34;;;;;;;;;6.00;6.00;;;;;22.84;56.74;100777.13;4977234;28;45345;-62
2022/09/06 08:12:05;;;;;;;;;5.00;5.00;;;;;22.85;55.92;100764.56;4976998;28;46224;-62
2022/09/06 08:14:30;;;;;;;;;2.25;2.25;;;;;22.93;54.42;100767.44;4977311;28;45401;-62
2022/09/06 08:16:56;;;;;;;;;3.00;3.00;;;;;22.94;53.33;100761.97;4977037;28;45417;-62
2022/09/06 08:19:21;;;;;;;;;4.50;4.50;;;;;22.99;53.71;100763.41;4977157;28;45706;-62
2022/09/06 08:21:47;;;;;;;;;4.75;4.75;;;;;22.98;53.48;100765.25;4976974;28;46143;-62
2022/09/06 08:24:12;;;;;;;;;10.00;10.00;;;;;23.04;53.71;100767.41;4976807;28;45468;-61
2022/09/06 08:26:39;;;;;;;;;6.25;4.00;;;;;23.06;53.34;100767.28;4976846;28;45465;-61
2022/09/06 08:29:06;;;;;;;;;32.33;29.33;;;;;23.11;53.44;100765.06;4977010;28;45386;-62
2022/09/06 08:31:32;;;;;;;;;11.00;11.00;;;;;23.16;53.70;100762.84;4976809;28;45404;-61
2022/09/06 08:33:59;;;;;;;;;5.00;5.00;;;;;23.08;53.33;100744.72;4977029;28;45412;-61
2022/09/06 08:36:28;;;;;;;;;7.00;5.75;;;;;23.22;53.38;100762.31;4959085;28;45433;-61
2022/09/06 08:38:54;;;;;;;;;4.00;4.00;;;;;23.23;52.48;100757.78;4976705;28;45391;-61
2022/09/06 08:41:29;;;;;;;;;5.00;4.00;;;;;23.27;52.30;100761.91;4976583;28;46263;-61
2022/09/06 08:43:58;;;;;;;;;17.00;15.00;;;;;23.29;52.06;100766.16;4976834;28;45404;-62
2022/09/06 08:46:39;;;;;;;;;11.00;10.75;;;;;23.34;51.86;100760.38;4976779;28;45380;-62
2022/09/06 08:49:05;;;;;;;;;4.75;4.75;;;;;23.34;50.81;100757.69;4976587;28;45347;-62
2022/09/06 08:51:49;;;;;;;;;4.00;4.00;;;;;23.35;50.76;100752.22;4976545;28;45429;-62
2022/09/06 08:54:33;;;;;;;;;4.00;4.00;;;;;23.37;50.23;100747.56;4976636;28;45351;-62
2022/09/06 08:57:07;;;;;;;;;5.00;5.00;;;;;23.41;50.54;100744.63;4976547;28;45435;-62
2022/09/06 08:59:38;;;;;;;;;5.50;5.50;;;;;23.44;50.80;100729.06;4976569;28;45421;-62
2022/09/06 09:02:19;;;;;;;;;6.25;5.00;;;;;23.50;51.21;100730.38;4976316;28;46175;-62
2022/09/06 09:04:54;;;;;;;;;6.00;5.25;;;;;23.52;52.94;100737.31;4975513;28;45429;-62
2022/09/06 09:07:42;;;;;;;;;6.00;6.00;;;;;23.55;53.49;100736.19;4976346;28;45528;-62
2022/09/06 09:10:20;;;;;;;;;6.00;6.00;;;;;23.53;53.36;100727.41;4976279;28;45454;-62
2022/09/06 09:12:47;;;;;;;;;4.50;4.50;;;;;23.57;52.89;100742.28;4976411;28;45958;-62
2022/09/06 09:15:15;;;;;;;;;8.75;7.00;;;;;23.65;52.60;100769.31;4976060;28;45404;-62
2022/09/06 09:17:42;;;;;;;;;6.00;5.25;;;;;23.67;51.83;100777.22;4976330;28;45436;-62
2022/09/06 09:20:09;;;;;;;;;4.25;4.25;;;;;23.71;51.66;100778.66;4976539;28;45496;-62
2022/09/06 09:22:35;;;;;;;;;3.75;3.75;;;;;23.69;51.11;100773.41;4975871;28;45611;-61
2022/09/06 09:25:02;;;;;;;;;4.25;4.25;;;;;23.73;50.67;100776.72;4975905;28;45555;-61
2022/09/06 09:27:28;;;;;;;;;6.50;4.00;;;;;23.73;50.49;100766.84;4976155;28;45518;-61
2022/09/06 09:29:53;;;;;;;;;4.25;3.25;;;;;23.90;50.15;100783.28;4976228;28;45553;-62
2022/09/06 09:32:28;;;;;;;;;3.00;3.00;;;;;23.97;50.57;100785.31;4975851;28;45428;-61
2022/09/06 09:34:55;;;;;;;;;3.50;3.50;;;;;24.04;49.37;100785.59;4975956;28;45330;-61
2022/09/06 09:37:24;;;;;;;;;4.25;2.75;;;;;24.08;49.70;100789.72;4976127;28;45446;-62
2022/09/06 09:39:53;;;;;;;;;6.00;6.00;;;;;24.10;49.81;100776.13;4975937;28;45365;-61
2022/09/06 09:42:34;;;;;;;;;3.75;3.75;;;;;24.14;49.65;100780.25;4975861;28;46774;-63
2022/09/06 09:45:01;;;;;;;;;4.00;4.00;;;;;24.13;49.55;100778.56;4975690;28;45444;-62
2022/09/06 09:47:30;;;;;;;;;4.50;4.00;;;;;24.03;49.67;100757.88;4976039;28;45471;-61
2022/09/06 09:49:57;;;;;;;;;11.00;8.25;;;;;24.13;49.55;100770.50;4975833;28;45485;-62
2022/09/06 09:52:25;;;;;;;;;8.75;8.75;;;;;24.10;49.47;100768.06;4975503;28;45512;-61
2022/09/06 09:54:54;;;;;;;;;6.50;5.75;;;;;24.10;49.56;100757.31;4975670;28;45528;-62
2022/09/06 09:57:21;;;;;;;;;4.25;4.25;;;;;24.09;49.80;100766.38;4975620;28;45433;-62
2022/09/06 09:59:53;;;;;;;;;3.00;3.00;;;;;24.11;50.04;100767.09;4975683;28;45375;-63
2022/09/06 10:02:34;;;;;;;;;3.50;3.50;;;;;24.10;50.49;100773.44;4957493;28;47742;-62
2022/09/06 10:05:06;;;;;;;;;3.25;3.25;;;;;24.09;50.17;100777.13;4975322;28;45536;-62
2022/09/06 10:07:42;;;;;;;;;6.00;6.00;;;;;24.08;50.47;100792.41;4975483;28;45476;-62
2022/09/06 10:10:24;;;;;;;;;5.00;5.00;;;;;24.04;50.70;100790.97;4975434;28;45319;-62
2022/09/06 10:13:07;;;;;;;;;33.67;31.00;;;;;23.99;50.73;100787.84;4975745;28;46239;-62
2022/09/06 10:15:42;;;;;;;;;6.00;6.00;;;;;24.08;51.28;100791.56;4975165;28;45424;-63
2022/09/06 10:18:35;;;;;;;;;5.25;5.25;;;;;24.15;51.73;100806.13;4975370;28;45461;-61
2022/09/06 10:21:02;;;;;;;;;5.25;5.25;;;;;24.13;52.06;100794.69;4971995;28;45431;-61
2022/09/06 10:23:36;;;;;;;;;10.00;8.00;;;;;24.15;52.65;100807.00;4975595;28;45533;-61
2022/09/06 10:26:11;;;;;;;;;7.75;7.00;;;;;24.12;53.24;100798.34;4978155;28;45451;-61
2022/09/06 10:28:48;;;;;;;;;5.75;5.75;;;;;24.06;52.83;100809.66;4978681;28;45512;-61
2022/09/06 10:31:26;;;;;;;;;5.25;5.25;;;;;24.05;52.94;100799.91;4978572;28;45378;-63
2022/09/06 10:33:51;;;;;;;;;7.25;7.25;;;;;24.02;53.32;100782.22;4978152;28;45428;-62
2022/09/06 10:36:23;;;;;;;;;7.50;7.50;;;;;23.98;52.97;100768.19;4978194;28;45438;-62
2022/09/06 10:38:57;;;;;;;;;7.50;7.50;;;;;23.98;53.06;100765.50;4978432;28;45514;-62
2022/09/06 10:42:08;;;;;;;;;9.25;9.00;;;;;23.98;53.16;100756.59;4978464;28;45420;-62
2022/09/06 10:44:53;;;;;;;;;12.25;12.25;;;;;23.96;53.22;100737.91;4977807;28;45499;-62
2022/09/06 10:47:19;;;;;;;;;20.33;18.67;;;;;23.94;53.34;100718.41;4978043;28;45435;-63
2022/09/06 10:49:53;;;;;;;;;5.25;5.25;;;;;23.98;53.25;100732.41;4978300;28;45520;-62
2022/09/06 10:52:28;;;;;;;;;6.00;6.00;;;;;23.92;52.43;100712.31;4978071;28;45569;-63
2022/09/06 10:55:02;;;;;;;;;4.25;4.00;;;;;23.95;53.05;100716.56;4977836;28;45463;-62
2022/09/06 10:57:53;;;;;;;;;7.00;7.00;;;;;23.99;52.59;100712.59;4977697;28;45442;-62
2022/09/06 11:00:18;;;;;;;;;6.75;6.75;;;;;24.02;52.75;100709.66;4977662;28;45500;-62
2022/09/06 11:02:47;;;;;;;;;6.00;5.00;;;;;24.02;52.75;100713.19;4977587;28;45362;-62
2022/09/06 11:05:21;;;;;;;;;5.25;5.25;;;;;24.04;52.50;100707.66;4976718;28;45333;-62
2022/09/06 11:07:54;;;;;;;;;5.00;5.00;;;;;24.08;52.96;100705.56;4977529;28;45568;-62
2022/09/06 11:10:26;;;;;;;;;5.50;5.50;;;;;24.18;52.29;100703.72;4977656;28;45445;-62
2022/09/06 11:13:05;;;;;;;;;6.00;6.00;;;;;24.20;52.32;100707.13;4978528;28;45426;-62
2022/09/06 11:15:46;;;;;;;;;5.25;5.25;;;;;24.22;52.19;100702.47;4977482;28;46212;-62
2022/09/06 11:18:17;;;;;;;;;6.75;6.00;;;;;24.22;52.39;100699.78;4977590;28;45369;-61
2022/09/06 11:20:51;;;;;;;;;6.00;4.75;;;;;24.19;51.73;100700.06;4977463;28;45384;-61
2022/09/06 11:23:37;;;;;;;;;8.00;8.00;;;;;24.18;51.80;100703.72;4977491;28;45437;-62
2022/09/06 11:26:05;;;;;;;;;6.25;6.25;;;;;24.17;51.54;100688.59;4977181;28;45464;-62
2022/09/06 11:28:40;;;;;;;;;8.00;8.00;;;;;24.15;51.14;100679.81;4976816;28;45533;-61
2022/09/06 11:31:10;;;;;;;;;8.00;8.00;;;;;24.14;51.40;100675.44;4977407;28;45475;-61
2022/09/06 11:33:38;;;;;;;;;7.25;7.25;;;;;24.23;50.95;100671.91;4976273;28;45349;-61